createdAt,value
2022-08-17T00:01:30.045Z,83.38
2022-08-17T00:04:06.894Z,82.94
2022-08-17T00:06:37.366Z,82.92
2022-08-17T00:09:05.160Z,82.38
2022-08-17T00:11:34.698Z,82.93
2022-08-17T00:14:21.968Z,82.32
2022-08-17T00:16:57.341Z,82.84
2022-08-17T00:19:26.060Z,82.95
2022-08-17T00:22:31.814Z,82.89
2022-08-17T00:24:42.814Z,83.60
2022-08-17T00:27:09.255Z,83.32
2022-08-17T00:29:36.335Z,83.21
2022-08-17T00:33:12.571Z,83.80
2022-08-17T00:34:49.923Z,83.14
2022-08-17T00:37:16.669Z,84.03
2022-08-17T00:39:44.251Z,83.83
2022-08-17T00:42:16.633Z,83.46
2022-08-17T00:44:43.164Z,83.24
2022-08-17T00:47:09.763Z,83.34
2022-08-17T00:49:36.268Z,83.41
2022-08-17T00:52:11.659Z,83.50
2022-08-17T00:54:42.469Z,83.28
2022-08-17T00:57:20.176Z,83.34
2022-08-17T00:59:56.052Z,83.02
2022-08-17T01:02:34.339Z,83.27
2022-08-17T01:05:09.172Z,83.18
2022-08-17T01:07:37.832Z,82.96
2022-08-17T01:10:58.521Z,82.61
2022-08-17T01:12:56.659Z,82.27
2022-08-17T01:15:23.514Z,82.58
2022-08-17T01:17:50.442Z,82.23
2022-08-17T01:20:17.033Z,81.88
2022-08-17T01:22:43.565Z,81.83
2022-08-17T01:25:12.658Z,80.92
2022-08-17T01:27:41.809Z,80.74
2022-08-17T01:30:56.648Z,80.59
2022-08-17T01:32:58.381Z,79.84
2022-08-17T01:35:24.965Z,80.10
2022-08-17T01:37:51.994Z,79.58
2022-08-17T01:40:28.865Z,79.40
2022-08-17T01:43:00.293Z,79.45
2022-08-17T01:45:33.564Z,79.56
2022-08-17T01:48:00.743Z,79.88
2022-08-17T01:50:31.166Z,80.66
2022-08-17T01:53:01.878Z,80.57
2022-08-17T01:55:34.670Z,80.72
2022-08-17T01:58:01.325Z,82.02
2022-08-17T02:01:01.043Z,82.20
2022-08-17T02:03:17.133Z,83.19
2022-08-17T02:05:44.377Z,84.18
2022-08-17T02:08:20.179Z,84.20
2022-08-17T02:10:48.632Z,84.99
2022-08-17T02:13:15.958Z,84.90
2022-08-17T02:15:42.988Z,86.24
2022-08-17T02:18:10.891Z,85.75
2022-08-17T02:20:41.598Z,84.94
2022-08-17T02:23:11.790Z,84.11
2022-08-17T02:25:42.039Z,84.04
2022-08-17T02:28:08.751Z,83.75
2022-08-17T02:30:59.802Z,84.12
2022-08-17T02:33:22.379Z,84.11
2022-08-17T02:35:48.972Z,84.12
2022-08-17T02:38:16.611Z,83.60
2022-08-17T02:40:43.277Z,83.30
2022-08-17T02:43:13.671Z,83.15
2022-08-17T02:45:40.354Z,83.35
2022-08-17T02:48:09.165Z,83.59
2022-08-17T02:50:36.387Z,83.52
2022-08-17T02:53:04.824Z,83.82
2022-08-17T02:55:35.705Z,83.68
2022-08-17T02:58:03.630Z,83.77
2022-08-17T03:00:37.204Z,83.53
2022-08-17T03:03:08.746Z,83.71
2022-08-17T03:05:36.386Z,82.55
2022-08-17T03:08:03.714Z,83.80
2022-08-17T03:10:31.076Z,83.78
2022-08-17T03:12:57.884Z,84.01
2022-08-17T03:15:27.264Z,83.93
2022-08-17T03:17:54.946Z,83.77
2022-08-17T03:20:21.729Z,84.05
2022-08-17T03:22:53.387Z,83.78
2022-08-17T03:25:33.128Z,83.29
2022-08-17T03:28:00.933Z,83.27
2022-08-17T03:30:28.809Z,82.64
2022-08-17T03:32:57.249Z,82.30
2022-08-17T03:35:27.205Z,81.82
2022-08-17T03:38:00.573Z,81.78
2022-08-17T03:40:55.652Z,81.92
2022-08-17T03:43:15.966Z,81.82
2022-08-17T03:46:01.678Z,82.05
2022-08-17T03:48:46.869Z,81.92
2022-08-17T03:51:38.135Z,81.73
2022-08-17T03:54:23.763Z,83.17
2022-08-17T03:57:02.348Z,83.69
2022-08-17T03:59:29.707Z,84.16
2022-08-17T04:01:59.022Z,84.10
2022-08-17T04:04:27.560Z,82.65
2022-08-17T04:06:54.581Z,82.21
2022-08-17T04:09:21.229Z,82.04
2022-08-17T04:11:47.833Z,82.08
2022-08-17T04:14:14.351Z,82.59
2022-08-17T04:16:41.137Z,82.82
2022-08-17T04:19:09.413Z,83.04
2022-08-17T04:21:35.950Z,82.84
2022-08-17T04:24:02.686Z,82.85
2022-08-17T04:26:52.195Z,82.94
2022-08-17T04:29:17.014Z,82.99
2022-08-17T04:31:43.974Z,83.46
2022-08-17T04:34:11.713Z,83.70
2022-08-17T04:36:38.300Z,83.90
2022-08-17T04:39:05.166Z,84.17
2022-08-17T04:41:50.424Z,84.93
2022-08-17T04:44:28.331Z,85.56
2022-08-17T04:47:03.405Z,86.33
2022-08-17T04:49:30.022Z,86.89
2022-08-17T04:52:00.114Z,88.04
2022-08-17T04:54:30.990Z,88.67
2022-08-17T04:56:57.572Z,89.18
2022-08-17T04:59:24.030Z,89.24
2022-08-17T05:01:51.693Z,89.57
2022-08-17T05:04:33.042Z,89.88
2022-08-17T05:07:01.224Z,89.83
2022-08-17T05:09:28.077Z,89.85
2022-08-17T05:11:55.287Z,90.36
2022-08-17T05:14:22.704Z,90.57
2022-08-17T05:16:59.750Z,90.40
2022-08-17T05:19:27.665Z,90.55
2022-08-17T05:21:54.203Z,90.42
2022-08-17T05:24:42.508Z,90.60
2022-08-17T05:27:07.449Z,90.30
2022-08-17T05:29:35.265Z,89.49
2022-08-17T05:32:38.982Z,88.91
2022-08-17T05:35:00.458Z,88.86
2022-08-17T05:37:27.437Z,89.11
2022-08-17T05:39:54.055Z,88.63
2022-08-17T05:42:21.549Z,88.42
2022-08-17T05:44:47.994Z,87.78
2022-08-17T05:47:14.453Z,87.86
2022-08-17T05:49:41.044Z,87.61
2022-08-17T05:52:23.468Z,88.10
2022-08-17T05:55:11.880Z,88.41
2022-08-17T05:58:17.651Z,88.40
2022-08-17T06:01:13.217Z,87.84
2022-08-17T06:03:59.009Z,87.21
2022-08-17T06:06:34.679Z,87.34
2022-08-17T06:09:33.840Z,86.73
2022-08-17T06:12:21.443Z,86.67
2022-08-17T06:15:24.822Z,85.96
2022-08-17T06:17:59.803Z,85.92
2022-08-17T06:20:32.594Z,85.81
2022-08-17T06:23:11.083Z,85.92
2022-08-17T06:25:45.287Z,85.90
2022-08-17T06:28:16.191Z,85.92
2022-08-17T06:30:59.583Z,85.98
2022-08-17T06:33:35.403Z,86.12
2022-08-17T06:36:26.294Z,85.93
2022-08-17T06:39:03.298Z,85.54
2022-08-17T06:41:58.194Z,85.33
2022-08-17T06:44:50.675Z,85.90
2022-08-17T06:47:27.948Z,86.55
2022-08-17T06:50:16.816Z,86.46
2022-08-17T06:53:12.795Z,86.17
2022-08-17T06:55:51.293Z,86.17
2022-08-17T06:58:22.204Z,86.44
2022-08-17T07:00:56.665Z,86.35
2022-08-17T07:03:37.619Z,86.26
2022-08-17T07:06:22.144Z,86.18
2022-08-17T07:08:58.993Z,86.18
2022-08-17T07:11:41.477Z,86.17
2022-08-17T07:14:32.012Z,85.77
2022-08-17T07:17:02.797Z,86.05
2022-08-17T07:19:32.889Z,86.35
2022-08-17T07:22:22.080Z,86.12
2022-08-17T07:25:05.530Z,86.31
2022-08-17T07:27:40.786Z,85.96
2022-08-17T07:30:16.319Z,86.34
2022-08-17T07:32:53.309Z,86.21
2022-08-17T07:35:37.573Z,86.62
2022-08-17T07:38:28.204Z,86.54
2022-08-17T07:40:57.802Z,87.32
2022-08-17T07:43:27.691Z,87.20
2022-08-17T07:46:29.965Z,87.93
2022-08-17T07:49:15.823Z,87.49
2022-08-17T07:51:48.076Z,87.15
2022-08-17T07:54:19.457Z,86.92
2022-08-17T07:56:49.541Z,87.87
2022-08-17T07:59:25.071Z,87.20
2022-08-17T08:01:57.545Z,86.17
2022-08-17T08:07:16.085Z,85.95
2022-08-17T08:10:05.008Z,85.87
2022-08-17T08:12:39.864Z,85.88
2022-08-17T08:15:19.271Z,85.85
2022-08-17T08:17:49.915Z,85.75
2022-08-17T08:20:52.496Z,85.77
2022-08-17T08:23:25.922Z,84.06
2022-08-17T08:26:09.545Z,83.38
2022-08-17T08:29:08.921Z,81.73
2022-08-17T08:31:44.430Z,79.72
2022-08-17T08:34:45.031Z,76.03
2022-08-17T08:37:16.450Z,72.92
2022-08-17T08:40:15.558Z,72.12
2022-08-17T08:42:58.775Z,72.15
2022-08-17T08:46:06.653Z,72.27
2022-08-17T08:48:56.627Z,71.03
2022-08-17T08:51:33.935Z,70.18
2022-08-17T08:54:17.262Z,69.58
2022-08-17T08:57:22.326Z,69.25
2022-08-17T09:00:20.030Z,68.93
2022-08-17T09:03:17.410Z,68.98
2022-08-17T09:05:56.180Z,68.86
2022-08-17T09:08:32.210Z,69.24
2022-08-17T09:11:25.655Z,69.77
2022-08-17T09:13:55.626Z,68.03
2022-08-17T09:16:30.802Z,67.65
2022-08-17T09:19:05.366Z,67.83
2022-08-17T09:21:49.726Z,67.36
2022-08-17T09:24:43.383Z,68.12
2022-08-17T09:27:18.381Z,67.79
2022-08-17T09:30:07.863Z,69.18
2022-08-17T09:32:39.620Z,69.32
2022-08-17T09:35:15.728Z,69.11
2022-08-17T09:38:02.916Z,71.85
2022-08-17T09:40:43.186Z,76.61
2022-08-17T09:43:28.045Z,77.35
2022-08-17T09:46:02.158Z,79.22
2022-08-17T09:48:35.613Z,79.91
2022-08-17T09:51:25.158Z,80.54
2022-08-17T09:53:51.946Z,80.89
2022-08-17T09:56:46.952Z,80.13
2022-08-17T09:59:44.949Z,81.92
2022-08-17T10:02:45.606Z,82.10
2022-08-17T10:05:22.688Z,81.33
2022-08-17T10:08:41.832Z,79.76
2022-08-17T10:11:50.266Z,79.97
2022-08-17T10:14:37.036Z,80.13
2022-08-17T10:17:28.620Z,79.47
2022-08-17T10:20:15.814Z,77.25
2022-08-17T10:23:20.480Z,77.21
2022-08-17T10:26:04.509Z,75.16
2022-08-17T10:28:44.493Z,74.57
2022-08-17T10:31:34.463Z,75.29
2022-08-17T10:34:23.414Z,74.14
2022-08-17T10:37:16.351Z,75.02
2022-08-17T10:39:52.721Z,72.08
2022-08-17T10:42:37.401Z,72.52
2022-08-17T10:45:06.802Z,71.66
2022-08-17T10:48:12.943Z,71.45
2022-08-17T10:50:49.469Z,71.97
2022-08-17T10:53:31.256Z,72.40
2022-08-17T10:56:13.084Z,72.31
2022-08-17T10:58:59.521Z,71.43
2022-08-17T11:01:31.742Z,71.59
2022-08-17T11:04:21.328Z,72.02
2022-08-17T11:07:12.365Z,71.80
2022-08-17T11:10:09.216Z,71.30
2022-08-17T11:13:21.689Z,70.75
2022-08-17T11:16:08.125Z,72.41
2022-08-17T11:18:56.019Z,73.43
2022-08-17T11:21:41.616Z,73.74
2022-08-17T11:24:35.767Z,75.64
2022-08-17T11:27:09.129Z,75.52
2022-08-17T11:29:59.464Z,75.26
2022-08-17T11:32:47.669Z,76.54
2022-08-17T11:35:21.193Z,76.05
2022-08-17T11:38:15.990Z,77.35
2022-08-17T11:41:04.153Z,77.88
2022-08-17T11:44:03.527Z,79.70
2022-08-17T11:47:13.907Z,80.77
2022-08-17T11:50:17.664Z,81.51
2022-08-17T11:52:47.963Z,81.40
2022-08-17T11:55:38.209Z,80.87
2022-08-17T11:58:28.897Z,80.94
2022-08-17T12:01:03.212Z,81.97
2022-08-17T12:03:32.910Z,83.95
2022-08-17T12:06:06.872Z,84.52
2022-08-17T12:08:41.678Z,85.15
2022-08-17T12:11:12.085Z,84.51
2022-08-17T12:13:46.594Z,85.26
2022-08-17T12:16:19.064Z,85.62
2022-08-17T12:19:02.422Z,85.60
2022-08-17T12:21:42.539Z,86.58
2022-08-17T12:24:35.386Z,86.33
2022-08-17T12:27:04.433Z,86.10
2022-08-17T12:29:38.793Z,86.04
2022-08-17T12:32:13.757Z,85.81
2022-08-17T12:34:42.825Z,86.06
2022-08-17T12:37:31.490Z,86.05
2022-08-17T12:40:05.584Z,86.23
2022-08-17T12:42:39.270Z,87.27
2022-08-17T12:45:08.355Z,87.32
2022-08-17T12:47:38.059Z,86.72
2022-08-17T12:50:28.485Z,86.69
2022-08-17T12:53:01.600Z,87.16
2022-08-17T12:55:35.565Z,87.82
2022-08-17T12:58:02.431Z,88.03
2022-08-17T13:00:32.816Z,88.38
2022-08-17T13:03:07.727Z,88.26
2022-08-17T13:06:06.222Z,88.29
2022-08-17T13:08:36.430Z,89.06
2022-08-17T13:11:10.826Z,88.26
2022-08-17T13:13:41.455Z,88.93
2022-08-17T13:16:17.235Z,89.15
2022-08-17T13:18:48.708Z,88.61
2022-08-17T13:21:26.606Z,87.93
2022-08-17T13:23:54.203Z,89.37
2022-08-17T13:26:30.392Z,89.34
2022-08-17T13:28:57.524Z,89.74
2022-08-17T13:31:42.854Z,89.88
2022-08-17T13:34:28.311Z,90.36
2022-08-17T13:37:29.753Z,90.22
2022-08-17T13:40:08.129Z,90.51
2022-08-17T13:42:52.986Z,90.82
2022-08-17T13:45:36.623Z,91.17
2022-08-17T13:48:23.926Z,91.14
2022-08-17T13:50:56.532Z,91.49
2022-08-17T13:53:31.522Z,91.01
2022-08-17T13:56:03.848Z,91.41
2022-08-17T13:58:37.169Z,91.15
2022-08-17T14:01:37.135Z,91.17
2022-08-17T14:04:07.910Z,90.99
2022-08-17T14:06:59.525Z,91.25
2022-08-17T14:09:37.229Z,91.34
2022-08-17T14:12:11.401Z,91.34
2022-08-17T14:14:42.978Z,91.29
2022-08-17T14:17:10.656Z,90.51
2022-08-17T14:19:37.539Z,89.86
2022-08-17T14:22:06.536Z,89.90
2022-08-17T14:24:38.992Z,89.88
2022-08-17T14:27:09.083Z,90.08
2022-08-17T14:29:35.950Z,90.23
2022-08-17T14:32:11.287Z,89.96
2022-08-17T14:34:37.717Z,88.55
2022-08-17T14:37:04.155Z,90.15
2022-08-17T14:39:30.643Z,88.79
2022-08-17T14:41:58.269Z,88.84
2022-08-17T14:44:24.879Z,89.07
2022-08-17T14:46:51.526Z,88.72
2022-08-17T14:49:20.567Z,89.27
2022-08-17T14:51:47.271Z,89.79
2022-08-17T14:54:33.354Z,89.02
2022-08-17T14:57:23.368Z,88.76
2022-08-17T14:59:53.417Z,89.14
2022-08-17T15:02:30.046Z,88.71
2022-08-17T15:05:02.212Z,88.61
2022-08-17T15:07:30.901Z,88.78
2022-08-17T15:09:58.939Z,88.96
2022-08-17T15:12:32.038Z,88.60
2022-08-17T15:15:00.547Z,88.79
2022-08-17T15:17:27.105Z,88.39
2022-08-17T15:20:15.778Z,88.55
2022-08-17T15:22:43.663Z,89.11
2022-08-17T15:25:10.681Z,89.66
2022-08-17T15:27:37.496Z,88.96
2022-08-17T15:30:08.087Z,88.46
2022-08-17T15:32:37.998Z,88.49
2022-08-17T15:35:06.304Z,87.62
2022-08-17T15:37:33.337Z,88.39
2022-08-17T15:40:01.059Z,88.41
2022-08-17T15:42:27.736Z,88.58
2022-08-17T15:44:57.152Z,89.16
2022-08-17T15:47:24.395Z,88.60
2022-08-17T15:49:50.918Z,88.20
2022-08-17T15:52:22.464Z,86.98
2022-08-17T15:54:50.896Z,86.56
2022-08-17T15:57:18.153Z,86.96
2022-08-17T15:59:44.732Z,87.42
2022-08-17T16:03:14.239Z,87.16
2022-08-17T16:05:17.461Z,86.83
2022-08-17T16:07:46.307Z,86.52
2022-08-17T16:10:18.225Z,86.85
2022-08-17T16:12:46.903Z,86.67
2022-08-17T16:15:13.831Z,85.34
2022-08-17T16:17:41.457Z,85.08
2022-08-17T16:20:10.093Z,85.50
2022-08-17T16:22:47.760Z,84.98
2022-08-17T16:25:18.671Z,85.06
2022-08-17T16:27:46.622Z,84.81
2022-08-17T16:30:17.735Z,84.83
2022-08-17T16:32:45.760Z,85.29
2022-08-17T16:35:16.085Z,85.66
2022-08-17T16:37:44.594Z,85.87
2022-08-17T16:40:13.285Z,85.85
2022-08-17T16:42:40.542Z,86.90
2022-08-17T16:45:12.943Z,86.14
2022-08-17T16:47:40.115Z,85.79
2022-08-17T16:50:11.598Z,85.42
2022-08-17T16:52:38.660Z,85.40
2022-08-17T16:55:07.405Z,85.70
2022-08-17T16:57:34.944Z,85.30
2022-08-17T17:00:01.533Z,85.77
2022-08-17T17:02:32.382Z,85.98
2022-08-17T17:05:24.316Z,85.70
2022-08-17T17:08:16.262Z,86.05
2022-08-17T17:10:47.747Z,85.57
2022-08-17T17:13:20.856Z,85.26
2022-08-17T17:16:00.677Z,85.94
2022-08-17T17:18:40.823Z,86.72
2022-08-17T17:21:12.678Z,86.32
2022-08-17T17:23:52.528Z,86.47
2022-08-17T17:26:50.591Z,85.99
2022-08-17T17:29:26.646Z,86.07
2022-08-17T17:32:17.328Z,86.60
2022-08-17T17:34:50.988Z,86.06
2022-08-17T17:37:24.414Z,87.14
2022-08-17T17:39:59.033Z,87.00
2022-08-17T17:42:31.232Z,86.55
2022-08-17T17:45:07.608Z,87.17
2022-08-17T17:47:35.124Z,87.99
2022-08-17T17:50:04.410Z,88.83
2022-08-17T17:52:47.287Z,88.00
2022-08-17T17:55:36.206Z,87.85
2022-08-17T17:58:07.485Z,88.53
2022-08-17T18:00:41.888Z,88.91
2022-08-17T18:03:34.592Z,87.91
2022-08-17T18:06:18.670Z,87.17
2022-08-17T18:09:10.259Z,87.72
2022-08-17T18:12:15.780Z,87.45
2022-08-17T18:14:49.597Z,87.58
2022-08-17T18:17:17.945Z,88.34
2022-08-17T18:19:45.182Z,89.17
2022-08-17T18:22:19.564Z,90.22
2022-08-17T18:24:49.441Z,91.62
2022-08-17T18:27:30.706Z,90.79
2022-08-17T18:29:59.519Z,91.96
2022-08-17T18:32:33.376Z,91.67
2022-08-17T18:35:19.737Z,90.99
2022-08-17T18:37:46.192Z,91.44
2022-08-17T18:40:21.504Z,91.76
2022-08-17T18:43:22.899Z,92.18
2022-08-17T18:45:51.542Z,94.73
2022-08-17T18:48:32.978Z,96.10
2022-08-17T18:51:26.331Z,97.14
2022-08-17T18:54:16.329Z,98.25
2022-08-17T18:56:48.593Z,98.49
2022-08-17T18:59:26.900Z,99.06
2022-08-17T19:01:58.179Z,98.66
2022-08-17T19:04:41.869Z,98.66
2022-08-17T19:07:31.228Z,98.44
2022-08-17T19:10:16.349Z,98.61
2022-08-17T19:12:52.406Z,99.22
2022-08-17T19:15:29.976Z,98.29
2022-08-17T19:18:26.692Z,98.11
2022-08-17T19:21:10.517Z,99.09
2022-08-17T19:24:04.855Z,99.50
2022-08-17T19:26:54.369Z,99.39
2022-08-17T19:29:36.715Z,99.20
2022-08-17T19:32:04.132Z,98.89
2022-08-17T19:34:34.656Z,99.54
2022-08-17T19:37:17.684Z,100.00
2022-08-17T19:40:02.570Z,100.00
2022-08-17T19:43:00.689Z,99.58
2022-08-17T19:45:56.032Z,99.56
2022-08-17T19:48:25.462Z,99.84
2022-08-17T19:51:17.783Z,99.91
2022-08-17T19:54:07.278Z,100.00
2022-08-17T19:56:50.201Z,100.00
2022-08-17T19:59:41.339Z,100.00
2022-08-17T20:02:23.269Z,100.00
2022-08-17T20:04:52.988Z,100.00
2022-08-17T20:07:43.674Z,99.89
2022-08-17T20:10:28.819Z,100.00
2022-08-17T20:13:01.548Z,100.00
2022-08-17T20:15:30.631Z,99.99
2022-08-17T20:18:05.404Z,99.70
2022-08-17T20:20:47.152Z,100.00
2022-08-17T20:23:28.902Z,99.93
2022-08-17T20:26:23.391Z,99.72
2022-08-17T20:29:37.141Z,99.67
2022-08-17T20:32:31.348Z,99.42
2022-08-17T20:35:08.434Z,99.83
2022-08-17T20:37:38.177Z,100.00
2022-08-17T20:40:05.017Z,99.95
2022-08-17T20:42:33.772Z,100.00
2022-08-17T20:45:21.602Z,100.00
2022-08-17T20:48:18.494Z,100.00
2022-08-17T20:50:47.149Z,100.00
2022-08-17T20:53:48.477Z,100.00
2022-08-17T20:56:48.763Z,99.86
2022-08-17T20:59:25.512Z,99.93
2022-08-17T21:02:18.689Z,100.00
2022-08-17T21:04:52.873Z,99.73
2022-08-17T21:07:47.583Z,99.91
2022-08-17T21:10:25.781Z,99.68
2022-08-17T21:13:01.794Z,99.49
2022-08-17T21:15:39.199Z,99.43
2022-08-17T21:18:21.697Z,99.62
2022-08-17T21:21:24.126Z,99.47
2022-08-17T21:24:27.680Z,99.30
2022-08-17T21:27:23.485Z,99.16
2022-08-17T21:29:57.225Z,99.30
2022-08-17T21:32:30.521Z,99.20
2022-08-17T21:35:06.772Z,99.34
2022-08-17T21:37:41.979Z,98.81
2022-08-17T21:40:11.342Z,98.77
2022-08-17T21:42:46.585Z,99.28
2022-08-17T21:45:24.875Z,99.04
2022-08-17T21:48:12.956Z,98.79
2022-08-17T21:50:42.754Z,98.80
2022-08-17T21:53:21.995Z,98.57
2022-08-17T21:55:50.137Z,98.19
2022-08-17T21:58:31.133Z,97.86
2022-08-17T22:01:26.423Z,98.27
2022-08-17T22:04:04.075Z,98.16
2022-08-17T22:06:38.531Z,98.15
2022-08-17T22:09:11.212Z,98.13
2022-08-17T22:11:52.423Z,98.65
2022-08-17T22:14:22.924Z,98.66
2022-08-17T22:17:16.759Z,98.44
2022-08-17T22:19:46.676Z,98.83
2022-08-17T22:22:59.314Z,98.51
2022-08-17T22:25:28.018Z,98.42
2022-08-17T22:27:57.859Z,98.26
2022-08-17T22:30:35.874Z,97.98
2022-08-17T22:33:40.340Z,97.99
2022-08-17T22:36:22.524Z,97.81
2022-08-17T22:38:49.897Z,97.42
2022-08-17T22:41:42.396Z,97.69
2022-08-17T22:44:23.394Z,97.35
2022-08-17T22:46:58.637Z,97.55
2022-08-17T22:49:54.193Z,97.42
2022-08-17T22:53:02.296Z,97.38
2022-08-17T22:55:51.953Z,97.84
2022-08-17T22:58:40.353Z,97.51
2022-08-17T23:01:29.617Z,97.88
2022-08-17T23:03:59.306Z,97.84
2022-08-17T23:06:25.841Z,98.14
2022-08-17T23:08:57.574Z,98.07
2022-08-17T23:11:36.911Z,97.76
2022-08-17T23:14:15.541Z,97.62
2022-08-17T23:16:42.666Z,98.27
2022-08-17T23:19:10.540Z,98.38
2022-08-17T23:21:37.373Z,98.23
2022-08-17T23:24:08.818Z,98.47
2022-08-17T23:26:37.943Z,98.33
2022-08-17T23:29:08.891Z,98.60
2022-08-17T23:31:37.155Z,98.66
2022-08-17T23:34:06.670Z,98.43
2022-08-17T23:36:35.801Z,98.79
2022-08-17T23:39:02.237Z,98.68
2022-08-17T23:41:32.019Z,98.71
2022-08-17T23:43:59.915Z,98.72
2022-08-17T23:46:26.355Z,98.52
2022-08-17T23:48:54.076Z,98.60
2022-08-17T23:51:25.218Z,98.33
2022-08-17T23:53:58.007Z,99.00
2022-08-17T23:56:26.046Z,99.08
2022-08-17T23:58:55.801Z,99.06
